createdAt,value
2022-08-25T00:08:16.615Z,5.07
2022-08-25T00:14:05.992Z,5.25
2022-08-25T00:19:45.818Z,5.68
2022-08-25T00:24:54.184Z,5.75
2022-08-25T00:31:06.095Z,6.00
2022-08-25T04:57:01.052Z,9.90
2022-08-25T05:07:07.889Z,8.70
2022-08-25T05:12:10.695Z,9.07
2022-08-25T05:17:14.879Z,8.52
2022-08-25T05:22:17.020Z,8.35
2022-08-25T05:32:21.313Z,8.20
2022-08-25T05:42:25.759Z,7.03
2022-08-25T05:47:30.031Z,7.70
2022-08-25T05:52:33.272Z,7.18
2022-08-25T05:57:41.564Z,7.03
2022-08-25T06:02:48.650Z,7.10
2022-08-25T06:07:56.111Z,6.85
2022-08-25T06:13:01.550Z,6.65
2022-08-25T06:18:04.344Z,7.38
2022-08-25T06:23:06.942Z,7.63
2022-08-25T06:28:09.161Z,7.40
2022-08-25T06:33:11.575Z,7.57
2022-08-25T06:38:13.965Z,7.22
2022-08-25T06:43:15.938Z,7.32
2022-08-25T06:48:17.929Z,7.28
2022-08-25T06:53:19.903Z,7.28
2022-08-25T06:58:22.118Z,6.68
2022-08-25T07:08:31.714Z,6.00
2022-08-25T07:13:34.549Z,6.30
2022-08-25T07:18:36.760Z,6.18
2022-08-25T07:23:39.808Z,5.43
2022-08-25T07:28:47.435Z,5.85
2022-08-25T07:34:07.969Z,5.40
2022-08-25T07:39:11.820Z,5.18
2022-08-25T07:44:13.840Z,4.50
2022-08-25T07:49:17.228Z,4.15
2022-08-25T07:54:19.329Z,4.60
2022-08-25T07:59:21.303Z,4.18
2022-08-25T08:04:23.245Z,4.38
2022-08-25T08:14:27.083Z,3.95
2022-08-25T08:19:29.009Z,4.90
2022-08-25T08:29:54.366Z,4.35
2022-08-25T08:34:56.352Z,4.10
2022-08-25T08:40:03.253Z,3.70
2022-08-25T08:45:09.468Z,3.85
2022-08-25T08:50:30.830Z,3.38
2022-08-25T08:55:52.756Z,4.00
2022-08-25T09:01:01.865Z,4.32
2022-08-25T09:06:14.104Z,3.83
2022-08-25T09:11:46.517Z,4.22
2022-08-25T09:17:06.465Z,3.78
2022-08-25T09:22:35.431Z,4.05
2022-08-25T09:28:21.119Z,3.65
2022-08-25T09:33:25.943Z,4.03
2022-08-25T09:38:30.918Z,3.55
2022-08-25T09:43:44.669Z,4.10
2022-08-25T09:48:55.890Z,3.90
2022-08-25T09:54:15.266Z,4.05
2022-08-25T09:59:34.287Z,4.00
2022-08-25T10:04:40.303Z,4.10
2022-08-25T10:09:43.539Z,3.40
2022-08-25T10:14:48.115Z,3.53
2022-08-25T10:19:54.261Z,3.72
2022-08-25T10:25:01.331Z,4.13
2022-08-25T10:30:44.623Z,3.55
2022-08-25T10:36:17.437Z,3.35
2022-08-25T10:41:28.189Z,3.65
2022-08-25T10:46:30.171Z,3.00
2022-08-25T10:51:43.621Z,3.03
2022-08-25T10:57:01.451Z,3.00
2022-08-25T11:02:33.460Z,2.72
2022-08-25T11:07:45.236Z,3.67
2022-08-25T11:12:57.148Z,2.95
2022-08-25T11:18:14.405Z,3.05
2022-08-25T11:23:41.959Z,2.42
2022-08-25T11:29:04.248Z,2.47
2022-08-25T11:34:11.505Z,2.67
2022-08-25T11:40:03.541Z,2.50
2022-08-25T11:45:27.234Z,2.50
2022-08-25T11:51:09.493Z,2.55
2022-08-25T11:56:34.716Z,2.53
2022-08-25T12:01:40.674Z,2.58
2022-08-25T12:07:10.704Z,1.95
2022-08-25T12:12:39.118Z,2.63
2022-08-25T12:17:42.999Z,2.55
2022-08-25T12:22:55.834Z,2.55
2022-08-25T12:28:19.767Z,2.47
2022-08-25T12:33:38.560Z,2.83
2022-08-25T12:38:52.307Z,2.50
2022-08-25T12:44:33.143Z,2.78
2022-08-25T12:49:36.194Z,2.78
2022-08-25T12:55:06.394Z,2.35
2022-08-25T13:00:23.725Z,2.37
2022-08-25T13:06:08.331Z,2.38
2022-08-25T13:11:27.969Z,2.40
2022-08-25T13:16:30.475Z,2.40
2022-08-25T13:21:42.496Z,2.53
2022-08-25T13:26:48.311Z,2.40
2022-08-25T13:32:00.995Z,2.90
2022-08-25T13:37:30.276Z,2.88
2022-08-25T13:42:32.589Z,2.80
2022-08-25T13:47:45.006Z,2.55
2022-08-25T13:53:21.889Z,2.83
2022-08-25T13:58:39.402Z,2.50
2022-08-25T14:03:48.743Z,2.38
2022-08-25T14:09:00.365Z,2.40
2022-08-25T14:14:08.628Z,2.30
2022-08-25T14:19:20.310Z,2.55
2022-08-25T14:24:23.774Z,2.75
2022-08-25T14:29:26.308Z,2.83
2022-08-25T14:34:39.530Z,2.85
2022-08-25T14:39:44.856Z,2.95
2022-08-25T14:44:47.033Z,3.20
2022-08-25T14:49:49.749Z,3.03
2022-08-25T14:54:52.261Z,2.90
2022-08-25T14:59:54.746Z,2.60
2022-08-25T15:05:00.845Z,2.80
2022-08-25T15:10:04.667Z,2.83
2022-08-25T15:15:07.185Z,2.97
2022-08-25T15:20:09.778Z,2.83
2022-08-25T15:25:13.199Z,2.90
2022-08-25T15:30:15.764Z,3.10
2022-08-25T15:35:17.826Z,2.97
2022-08-25T15:40:20.403Z,3.00
2022-08-25T15:45:22.506Z,2.90
2022-08-25T15:50:26.921Z,3.40
2022-08-25T15:55:28.936Z,2.83
2022-08-25T16:00:31.835Z,3.10
2022-08-25T16:05:48.087Z,3.30
2022-08-25T16:10:50.707Z,3.42
2022-08-25T16:15:55.074Z,3.25
2022-08-25T16:20:57.101Z,2.88
2022-08-25T16:26:00.127Z,3.00
2022-08-25T16:31:02.688Z,3.70
2022-08-25T16:36:12.836Z,3.78
2022-08-25T16:41:19.329Z,3.30
2022-08-25T16:46:22.221Z,3.55
2022-08-25T16:51:29.628Z,3.67
2022-08-25T16:56:35.208Z,3.38
2022-08-25T17:01:41.302Z,5.03
2022-08-25T17:06:51.541Z,6.43
2022-08-25T17:11:56.997Z,7.45
2022-08-25T17:16:59.261Z,9.82
2022-08-25T17:22:03.751Z,10.65
2022-08-25T17:27:09.498Z,10.48
2022-08-25T17:32:11.537Z,10.25
2022-08-25T17:37:16.448Z,10.45
2022-08-25T17:42:19.103Z,10.52
2022-08-25T17:47:22.981Z,9.98
2022-08-25T17:52:25.098Z,9.90
2022-08-25T17:57:27.725Z,11.48
2022-08-25T18:02:30.268Z,12.55
2022-08-25T18:07:33.150Z,12.00
2022-08-25T18:12:36.540Z,12.93
2022-08-25T18:17:39.726Z,14.00
2022-08-25T18:22:42.185Z,15.05
2022-08-25T18:27:46.191Z,14.98
2022-08-25T18:32:49.210Z,15.50
2022-08-25T18:38:10.417Z,16.08
2022-08-25T18:43:14.454Z,15.57
2022-08-25T18:48:19.896Z,17.67
2022-08-25T18:53:30.529Z,23.13
2022-08-25T18:58:39.884Z,23.00
2022-08-25T19:03:44.555Z,26.13
2022-08-25T19:08:47.128Z,27.27
2022-08-25T19:13:50.567Z,29.33
2022-08-25T19:18:52.507Z,29.52
2022-08-25T19:23:54.444Z,32.97
2022-08-25T19:28:56.916Z,33.92
2022-08-25T19:33:59.507Z,32.97
2022-08-25T19:39:02.602Z,33.35
2022-08-25T19:44:04.736Z,31.77
2022-08-25T19:49:21.231Z,31.50
2022-08-25T19:54:40.276Z,30.05
2022-08-25T19:59:47.526Z,30.08
2022-08-25T20:04:55.517Z,27.45
2022-08-25T20:09:59.461Z,25.17
2022-08-25T20:15:02.622Z,20.80
2022-08-25T20:20:09.954Z,18.63
2022-08-25T20:25:21.568Z,17.00
2022-08-25T20:30:29.347Z,16.25
2022-08-25T20:35:32.288Z,15.57
